sensor_id;sensor_type;location;lat;lon;timestamp;temperature;humidity
11385;DHT22;5747;56.748;13.882;2023-08-31T00:02:03;8.80;99.90
11385;DHT22;5747;56.748;13.882;2023-08-31T00:04:31;8.60;99.90
11385;DHT22;5747;56.748;13.882;2023-08-31T00:07:00;8.70;99.90
11385;DHT22;5747;56.748;13.882;2023-08-31T00:09:28;8.70;99.90
11385;DHT22;5747;56.748;13.882;2023-08-31T00:11:57;8.90;99.90
11385;DHT22;5747;56.748;13.882;2023-08-31T00:14:26;8.90;99.90
11385;DHT22;5747;56.748;13.882;2023-08-31T00:16:55;8.90;99.90
11385;DHT22;5747;56.748;13.882;2023-08-31T00:19:24;9.00;99.90
11385;DHT22;5747;56.748;13.882;2023-08-31T00:21:52;9.10;99.90
11385;DHT22;5747;56.748;13.882;2023-08-31T00:24:24;9.10;99.90
11385;DHT22;5747;56.748;13.882;2023-08-31T00:26:56;9.10;99.90
11385;DHT22;5747;56.748;13.882;2023-08-31T00:29:26;9.10;99.90
11385;DHT22;5747;56.748;13.882;2023-08-31T00:31:54;9.00;99.90
11385;DHT22;5747;56.748;13.882;2023-08-31T00:34:22;9.00;99.90
11385;DHT22;5747;56.748;13.882;2023-08-31T00:36:50;8.90;99.90
11385;DHT22;5747;56.748;13.882;2023-08-31T00:39:18;9.20;99.90
11385;DHT22;5747;56.748;13.882;2023-08-31T00:41:48;9.40;99.90
11385;DHT22;5747;56.748;13.882;2023-08-31T00:44:17;9.50;99.90
11385;DHT22;5747;56.748;13.882;2023-08-31T00:46:49;9.50;99.90
11385;DHT22;5747;56.748;13.882;2023-08-31T00:49:17;9.40;99.90
11385;DHT22;5747;56.748;13.882;2023-08-31T00:51:46;9.30;99.90
11385;DHT22;5747;56.748;13.882;2023-08-31T00:54:17;9.30;99.90
11385;DHT22;5747;56.748;13.882;2023-08-31T00:56:52;9.30;99.90
11385;DHT22;5747;56.748;13.882;2023-08-31T00:59:20;9.30;99.90
11385;DHT22;5747;56.748;13.882;2023-08-31T01:02:04;9.40;99.90
11385;DHT22;5747;56.748;13.882;2023-08-31T01:04:44;9.50;99.90
11385;DHT22;5747;56.748;13.882;2023-08-31T01:07:21;9.60;99.90
11385;DHT22;5747;56.748;13.882;2023-08-31T01:09:57;9.60;99.90
11385;DHT22;5747;56.748;13.882;2023-08-31T01:12:35;9.60;99.90
11385;DHT22;5747;56.748;13.882;2023-08-31T01:15:05;9.60;99.90
11385;DHT22;5747;56.748;13.882;2023-08-31T01:17:39;9.60;99.90
11385;DHT22;5747;56.748;13.882;2023-08-31T01:20:11;9.70;99.90
11385;DHT22;5747;56.748;13.882;2023-08-31T01:22:46;9.70;99.90
11385;DHT22;5747;56.748;13.882;2023-08-31T01:25:17;9.60;99.90
11385;DHT22;5747;56.748;13.882;2023-08-31T01:27:45;9.40;99.90
11385;DHT22;5747;56.748;13.882;2023-08-31T01:30:15;9.20;99.90
11385;DHT22;5747;56.748;13.882;2023-08-31T01:32:43;9.00;99.90
11385;DHT22;5747;56.748;13.882;2023-08-31T01:35:16;9.00;99.90
11385;DHT22;5747;56.748;13.882;2023-08-31T01:37:50;9.30;99.90
11385;DHT22;5747;56.748;13.882;2023-08-31T01:40:23;9.40;99.90
11385;DHT22;5747;56.748;13.882;2023-08-31T01:42:54;9.50;99.90
11385;DHT22;5747;56.748;13.882;2023-08-31T01:45:23;9.60;99.90
11385;DHT22;5747;56.748;13.882;2023-08-31T01:47:52;9.50;99.90
11385;DHT22;5747;56.748;13.882;2023-08-31T01:50:20;9.40;99.90
11385;DHT22;5747;56.748;13.882;2023-08-31T01:52:48;9.40;99.90
11385;DHT22;5747;56.748;13.882;2023-08-31T01:55:17;9.30;99.90
11385;DHT22;5747;56.748;13.882;2023-08-31T01:57:46;9.30;99.90
11385;DHT22;5747;56.748;13.882;2023-08-31T02:00:21;9.30;99.90
11385;DHT22;5747;56.748;13.882;2023-08-31T02:02:49;9.20;99.90
11385;DHT22;5747;56.748;13.882;2023-08-31T02:05:18;9.20;99.90
11385;DHT22;5747;56.748;13.882;2023-08-31T02:07:46;9.30;99.90
11385;DHT22;5747;56.748;13.882;2023-08-31T02:10:14;9.40;99.90
11385;DHT22;5747;56.748;13.882;2023-08-31T02:12:42;9.50;99.90
11385;DHT22;5747;56.748;13.882;2023-08-31T02:15:12;9.50;99.90
11385;DHT22;5747;56.748;13.882;2023-08-31T02:17:40;9.50;99.90
11385;DHT22;5747;56.748;13.882;2023-08-31T02:20:11;9.60;99.90
11385;DHT22;5747;56.748;13.882;2023-08-31T02:22:41;9.70;99.90
11385;DHT22;5747;56.748;13.882;2023-08-31T02:25:09;9.60;99.90
11385;DHT22;5747;56.748;13.882;2023-08-31T02:27:38;9.50;99.90
11385;DHT22;5747;56.748;13.882;2023-08-31T02:30:06;9.40;99.90
11385;DHT22;5747;56.748;13.882;2023-08-31T02:32:37;9.40;99.90
11385;DHT22;5747;56.748;13.882;2023-08-31T02:35:06;9.50;99.90
11385;DHT22;5747;56.748;13.882;2023-08-31T02:37:34;9.60;99.90
11385;DHT22;5747;56.748;13.882;2023-08-31T02:40:04;9.70;99.90
11385;DHT22;5747;56.748;13.882;2023-08-31T02:42:35;9.70;99.90
11385;DHT22;5747;56.748;13.882;2023-08-31T02:45:04;9.70;99.90
11385;DHT22;5747;56.748;13.882;2023-08-31T02:47:32;9.50;99.90
11385;DHT22;5747;56.748;13.882;2023-08-31T02:50:02;9.40;99.90
11385;DHT22;5747;56.748;13.882;2023-08-31T02:52:32;9.40;99.90
11385;DHT22;5747;56.748;13.882;2023-08-31T02:55:00;9.40;99.90
11385;DHT22;5747;56.748;13.882;2023-08-31T02:57:28;9.40;99.90
11385;DHT22;5747;56.748;13.882;2023-08-31T02:59:57;9.50;99.90
11385;DHT22;5747;56.748;13.882;2023-08-31T03:02:26;9.50;99.90
11385;DHT22;5747;56.748;13.882;2023-08-31T03:04:55;9.60;99.90
11385;DHT22;5747;56.748;13.882;2023-08-31T03:07:25;9.70;99.90
11385;DHT22;5747;56.748;13.882;2023-08-31T03:09:53;9.80;99.90
11385;DHT22;5747;56.748;13.882;2023-08-31T03:12:21;9.70;99.90
11385;DHT22;5747;56.748;13.882;2023-08-31T03:14:49;9.60;99.90
11385;DHT22;5747;56.748;13.882;2023-08-31T03:17:18;9.60;99.90
11385;DHT22;5747;56.748;13.882;2023-08-31T03:19:46;9.70;99.90
11385;DHT22;5747;56.748;13.882;2023-08-31T03:22:14;9.60;99.90
11385;DHT22;5747;56.748;13.882;2023-08-31T03:24:44;9.60;99.90
11385;DHT22;5747;56.748;13.882;2023-08-31T03:27:12;9.60;99.90
11385;DHT22;5747;56.748;13.882;2023-08-31T03:29:40;9.70;99.90
11385;DHT22;5747;56.748;13.882;2023-08-31T03:32:08;9.70;99.90
11385;DHT22;5747;56.748;13.882;2023-08-31T03:34:36;9.70;99.90
11385;DHT22;5747;56.748;13.882;2023-08-31T03:37:04;9.60;99.90
11385;DHT22;5747;56.748;13.882;2023-08-31T03:39:34;9.60;99.90
11385;DHT22;5747;56.748;13.882;2023-08-31T03:42:04;9.50;99.90
11385;DHT22;5747;56.748;13.882;2023-08-31T03:44:32;9.70;99.90
11385;DHT22;5747;56.748;13.882;2023-08-31T03:47:00;9.70;99.90
11385;DHT22;5747;56.748;13.882;2023-08-31T03:49:29;9.70;99.90
11385;DHT22;5747;56.748;13.882;2023-08-31T03:51:58;9.70;99.90
11385;DHT22;5747;56.748;13.882;2023-08-31T03:54:27;9.60;99.90
11385;DHT22;5747;56.748;13.882;2023-08-31T03:56:56;9.70;99.90
11385;DHT22;5747;56.748;13.882;2023-08-31T03:59:25;9.70;99.90
11385;DHT22;5747;56.748;13.882;2023-08-31T04:01:53;9.50;99.90
11385;DHT22;5747;56.748;13.882;2023-08-31T04:04:22;9.50;99.90
11385;DHT22;5747;56.748;13.882;2023-08-31T04:06:50;9.40;99.90
11385;DHT22;5747;56.748;13.882;2023-08-31T04:09:18;9.50;99.90
11385;DHT22;5747;56.748;13.882;2023-08-31T04:11:46;9.70;99.90
11385;DHT22;5747;56.748;13.882;2023-08-31T04:14:15;9.90;99.90
11385;DHT22;5747;56.748;13.882;2023-08-31T04:16:45;9.90;99.90
11385;DHT22;5747;56.748;13.882;2023-08-31T04:19:16;9.90;99.90
11385;DHT22;5747;56.748;13.882;2023-08-31T04:21:44;9.90;99.90
11385;DHT22;5747;56.748;13.882;2023-08-31T04:24:12;9.80;99.90
11385;DHT22;5747;56.748;13.882;2023-08-31T04:26:40;9.90;99.90
11385;DHT22;5747;56.748;13.882;2023-08-31T04:29:08;9.90;99.90
11385;DHT22;5747;56.748;13.882;2023-08-31T04:31:37;9.90;99.90
11385;DHT22;5747;56.748;13.882;2023-08-31T04:34:07;10.00;99.90
11385;DHT22;5747;56.748;13.882;2023-08-31T04:36:35;10.10;99.90
11385;DHT22;5747;56.748;13.882;2023-08-31T04:39:03;10.20;99.90
11385;DHT22;5747;56.748;13.882;2023-08-31T04:41:34;10.20;99.90
11385;DHT22;5747;56.748;13.882;2023-08-31T04:44:02;10.40;99.90
11385;DHT22;5747;56.748;13.882;2023-08-31T04:46:30;10.40;99.90
11385;DHT22;5747;56.748;13.882;2023-08-31T04:48:59;10.40;99.90
11385;DHT22;5747;56.748;13.882;2023-08-31T04:51:30;10.30;99.90
11385;DHT22;5747;56.748;13.882;2023-08-31T04:53:59;10.40;99.90
11385;DHT22;5747;56.748;13.882;2023-08-31T04:56:31;10.50;99.90
11385;DHT22;5747;56.748;13.882;2023-08-31T04:59:00;10.50;99.90
11385;DHT22;5747;56.748;13.882;2023-08-31T05:01:29;10.70;99.90
11385;DHT22;5747;56.748;13.882;2023-08-31T05:03:57;10.70;99.90
11385;DHT22;5747;56.748;13.882;2023-08-31T05:06:26;10.80;99.90
11385;DHT22;5747;56.748;13.882;2023-08-31T05:08:55;10.90;99.90
11385;DHT22;5747;56.748;13.882;2023-08-31T05:11:24;10.90;99.90
11385;DHT22;5747;56.748;13.882;2023-08-31T05:13:52;11.00;99.90
11385;DHT22;5747;56.748;13.882;2023-08-31T05:16:20;11.00;99.90
11385;DHT22;5747;56.748;13.882;2023-08-31T05:18:49;11.10;99.90
11385;DHT22;5747;56.748;13.882;2023-08-31T05:21:17;11.20;99.90
11385;DHT22;5747;56.748;13.882;2023-08-31T05:23:45;11.30;99.90
11385;DHT22;5747;56.748;13.882;2023-08-31T05:26:14;11.30;99.90
11385;DHT22;5747;56.748;13.882;2023-08-31T05:28:42;11.40;99.90
11385;DHT22;5747;56.748;13.882;2023-08-31T05:31:11;11.40;99.90
11385;DHT22;5747;56.748;13.882;2023-08-31T05:33:39;11.50;99.90
11385;DHT22;5747;56.748;13.882;2023-08-31T05:36:07;11.70;99.90
11385;DHT22;5747;56.748;13.882;2023-08-31T05:38:38;11.80;99.90
11385;DHT22;5747;56.748;13.882;2023-08-31T05:41:07;11.90;99.90
11385;DHT22;5747;56.748;13.882;2023-08-31T05:43:38;12.00;99.90
11385;DHT22;5747;56.748;13.882;2023-08-31T05:46:07;12.00;99.90
11385;DHT22;5747;56.748;13.882;2023-08-31T05:48:35;12.10;99.90
11385;DHT22;5747;56.748;13.882;2023-08-31T05:51:04;12.20;99.90
11385;DHT22;5747;56.748;13.882;2023-08-31T05:53:32;12.20;99.90
11385;DHT22;5747;56.748;13.882;2023-08-31T05:56:02;12.30;99.90
11385;DHT22;5747;56.748;13.882;2023-08-31T05:58:33;12.30;99.90
11385;DHT22;5747;56.748;13.882;2023-08-31T06:01:03;12.30;99.90
11385;DHT22;5747;56.748;13.882;2023-08-31T06:03:32;12.50;99.90
11385;DHT22;5747;56.748;13.882;2023-08-31T06:06:00;12.60;99.90
11385;DHT22;5747;56.748;13.882;2023-08-31T06:08:28;12.70;99.90
11385;DHT22;5747;56.748;13.882;2023-08-31T06:10:57;12.80;99.90
11385;DHT22;5747;56.748;13.882;2023-08-31T06:13:25;12.90;99.90
11385;DHT22;5747;56.748;13.882;2023-08-31T06:15:55;13.10;99.90
11385;DHT22;5747;56.748;13.882;2023-08-31T06:18:26;13.40;99.90
11385;DHT22;5747;56.748;13.882;2023-08-31T06:20:54;13.60;99.90
11385;DHT22;5747;56.748;13.882;2023-08-31T06:23:22;13.60;99.90
11385;DHT22;5747;56.748;13.882;2023-08-31T06:25:50;13.60;99.90
11385;DHT22;5747;56.748;13.882;2023-08-31T06:28:19;13.80;99.90
11385;DHT22;5747;56.748;13.882;2023-08-31T06:30:47;13.50;99.90
11385;DHT22;5747;56.748;13.882;2023-08-31T06:33:15;13.40;99.90
11385;DHT22;5747;56.748;13.882;2023-08-31T06:35:47;13.70;99.90
11385;DHT22;5747;56.748;13.882;2023-08-31T06:38:15;14.10;99.90
11385;DHT22;5747;56.748;13.882;2023-08-31T06:40:43;14.30;99.90
11385;DHT22;5747;56.748;13.882;2023-08-31T06:43:11;14.40;99.90
11385;DHT22;5747;56.748;13.882;2023-08-31T06:45:41;14.40;99.90
11385;DHT22;5747;56.748;13.882;2023-08-31T06:48:09;14.40;99.90
11385;DHT22;5747;56.748;13.882;2023-08-31T06:50:37;14.10;99.90
11385;DHT22;5747;56.748;13.882;2023-08-31T06:53:07;14.10;99.90
11385;DHT22;5747;56.748;13.882;2023-08-31T06:55:36;13.80;99.90
11385;DHT22;5747;56.748;13.882;2023-08-31T06:58:05;13.60;99.90
11385;DHT22;5747;56.748;13.882;2023-08-31T07:00:33;13.50;99.90
11385;DHT22;5747;56.748;13.882;2023-08-31T07:03:01;13.70;99.90
11385;DHT22;5747;56.748;13.882;2023-08-31T07:05:33;13.60;99.90
11385;DHT22;5747;56.748;13.882;2023-08-31T07:08:03;13.50;99.90
11385;DHT22;5747;56.748;13.882;2023-08-31T07:10:33;13.50;99.90
11385;DHT22;5747;56.748;13.882;2023-08-31T07:13:03;13.50;99.90
11385;DHT22;5747;56.748;13.882;2023-08-31T07:15:31;13.40;99.90
11385;DHT22;5747;56.748;13.882;2023-08-31T07:18:00;13.30;99.90
11385;DHT22;5747;56.748;13.882;2023-08-31T07:20:28;13.40;99.90
11385;DHT22;5747;56.748;13.882;2023-08-31T07:22:56;13.30;99.90
11385;DHT22;5747;56.748;13.882;2023-08-31T07:25:24;13.30;99.90
11385;DHT22;5747;56.748;13.882;2023-08-31T07:27:54;13.30;99.90
11385;DHT22;5747;56.748;13.882;2023-08-31T07:30:22;13.40;99.90
11385;DHT22;5747;56.748;13.882;2023-08-31T07:32:50;13.60;99.90
11385;DHT22;5747;56.748;13.882;2023-08-31T07:35:18;13.80;99.90
11385;DHT22;5747;56.748;13.882;2023-08-31T07:37:46;14.00;99.90
11385;DHT22;5747;56.748;13.882;2023-08-31T07:40:14;14.10;99.90
11385;DHT22;5747;56.748;13.882;2023-08-31T07:42:42;14.30;99.90
11385;DHT22;5747;56.748;13.882;2023-08-31T07:45:12;14.40;99.90
11385;DHT22;5747;56.748;13.882;2023-08-31T07:47:40;14.20;99.90
11385;DHT22;5747;56.748;13.882;2023-08-31T07:50:09;14.30;99.90
11385;DHT22;5747;56.748;13.882;2023-08-31T07:52:37;14.70;99.90
11385;DHT22;5747;56.748;13.882;2023-08-31T07:55:06;15.10;99.90
11385;DHT22;5747;56.748;13.882;2023-08-31T07:57:34;15.40;99.90
11385;DHT22;5747;56.748;13.882;2023-08-31T08:00:03;15.30;99.90
11385;DHT22;5747;56.748;13.882;2023-08-31T08:02:39;15.10;99.90
11385;DHT22;5747;56.748;13.882;2023-08-31T08:05:08;15.00;99.90
11385;DHT22;5747;56.748;13.882;2023-08-31T08:07:36;15.20;99.90
11385;DHT22;5747;56.748;13.882;2023-08-31T08:10:05;15.20;99.90
11385;DHT22;5747;56.748;13.882;2023-08-31T08:12:37;15.00;99.90
11385;DHT22;5747;56.748;13.882;2023-08-31T08:15:06;15.00;99.90
11385;DHT22;5747;56.748;13.882;2023-08-31T08:17:35;15.40;99.90
11385;DHT22;5747;56.748;13.882;2023-08-31T08:20:07;15.80;99.90
11385;DHT22;5747;56.748;13.882;2023-08-31T08:22:36;15.50;99.90
11385;DHT22;5747;56.748;13.882;2023-08-31T08:25:05;15.40;99.90
11385;DHT22;5747;56.748;13.882;2023-08-31T08:27:33;15.20;99.90
11385;DHT22;5747;56.748;13.882;2023-08-31T08:30:04;15.30;99.90
11385;DHT22;5747;56.748;13.882;2023-08-31T08:32:33;15.20;99.90
11385;DHT22;5747;56.748;13.882;2023-08-31T08:35:03;15.30;99.90
11385;DHT22;5747;56.748;13.882;2023-08-31T08:37:32;15.80;99.90
11385;DHT22;5747;56.748;13.882;2023-08-31T08:40:00;15.90;99.90
11385;DHT22;5747;56.748;13.882;2023-08-31T08:42:30;16.30;99.90
11385;DHT22;5747;56.748;13.882;2023-08-31T08:44:59;16.60;99.90
11385;DHT22;5747;56.748;13.882;2023-08-31T08:47:30;16.90;99.90
11385;DHT22;5747;56.748;13.882;2023-08-31T08:49:59;17.10;99.90
11385;DHT22;5747;56.748;13.882;2023-08-31T08:52:30;17.30;99.90
11385;DHT22;5747;56.748;13.882;2023-08-31T08:55:00;17.40;99.90
11385;DHT22;5747;56.748;13.882;2023-08-31T08:57:31;17.40;99.90
11385;DHT22;5747;56.748;13.882;2023-08-31T08:59:59;17.30;99.90
11385;DHT22;5747;56.748;13.882;2023-08-31T09:02:27;17.30;99.90
11385;DHT22;5747;56.748;13.882;2023-08-31T09:04:55;17.20;99.90
11385;DHT22;5747;56.748;13.882;2023-08-31T09:07:24;17.20;99.90
11385;DHT22;5747;56.748;13.882;2023-08-31T09:09:54;17.20;99.90
11385;DHT22;5747;56.748;13.882;2023-08-31T09:12:23;17.10;99.90
11385;DHT22;5747;56.748;13.882;2023-08-31T09:14:59;17.00;99.90
11385;DHT22;5747;56.748;13.882;2023-08-31T09:17:37;17.00;99.90
11385;DHT22;5747;56.748;13.882;2023-08-31T09:20:07;17.10;99.90
11385;DHT22;5747;56.748;13.882;2023-08-31T09:22:36;17.30;99.90
11385;DHT22;5747;56.748;13.882;2023-08-31T09:25:08;17.40;99.90
11385;DHT22;5747;56.748;13.882;2023-08-31T09:27:38;17.50;99.90
11385;DHT22;5747;56.748;13.882;2023-08-31T09:30:08;17.60;99.90
11385;DHT22;5747;56.748;13.882;2023-08-31T09:32:36;17.70;99.90
11385;DHT22;5747;56.748;13.882;2023-08-31T09:35:08;17.80;99.90
11385;DHT22;5747;56.748;13.882;2023-08-31T09:37:57;17.80;99.90
11385;DHT22;5747;56.748;13.882;2023-08-31T09:40:27;17.40;99.90
11385;DHT22;5747;56.748;13.882;2023-08-31T09:42:55;17.30;99.90
11385;DHT22;5747;56.748;13.882;2023-08-31T09:45:29;17.30;99.90
11385;DHT22;5747;56.748;13.882;2023-08-31T09:48:13;17.30;99.90
11385;DHT22;5747;56.748;13.882;2023-08-31T09:50:44;17.40;99.90
11385;DHT22;5747;56.748;13.882;2023-08-31T09:53:12;17.70;99.90
11385;DHT22;5747;56.748;13.882;2023-08-31T09:55:47;17.40;99.90
11385;DHT22;5747;56.748;13.882;2023-08-31T09:58:17;17.60;99.90
11385;DHT22;5747;56.748;13.882;2023-08-31T10:00:49;17.90;99.90
11385;DHT22;5747;56.748;13.882;2023-08-31T10:03:17;18.10;99.90
11385;DHT22;5747;56.748;13.882;2023-08-31T10:05:48;17.50;99.90
11385;DHT22;5747;56.748;13.882;2023-08-31T10:08:17;17.60;99.90
11385;DHT22;5747;56.748;13.882;2023-08-31T10:10:47;17.40;99.90
11385;DHT22;5747;56.748;13.882;2023-08-31T10:13:16;17.40;99.90
11385;DHT22;5747;56.748;13.882;2023-08-31T10:15:46;17.60;99.90
11385;DHT22;5747;56.748;13.882;2023-08-31T10:18:16;17.70;99.90
11385;DHT22;5747;56.748;13.882;2023-08-31T10:20:45;17.30;99.90
11385;DHT22;5747;56.748;13.882;2023-08-31T10:23:13;17.60;99.90
11385;DHT22;5747;56.748;13.882;2023-08-31T10:26:03;17.90;99.90
11385;DHT22;5747;56.748;13.882;2023-08-31T10:28:42;17.80;99.90
11385;DHT22;5747;56.748;13.882;2023-08-31T10:31:15;17.70;99.90
11385;DHT22;5747;56.748;13.882;2023-08-31T10:33:44;17.90;99.90
11385;DHT22;5747;56.748;13.882;2023-08-31T10:36:13;18.20;99.90
11385;DHT22;5747;56.748;13.882;2023-08-31T10:38:44;17.50;99.90
11385;DHT22;5747;56.748;13.882;2023-08-31T10:41:21;17.10;99.90
11385;DHT22;5747;56.748;13.882;2023-08-31T10:43:51;17.40;99.90
11385;DHT22;5747;56.748;13.882;2023-08-31T10:46:28;17.70;99.90
11385;DHT22;5747;56.748;13.882;2023-08-31T10:48:57;17.90;99.90
11385;DHT22;5747;56.748;13.882;2023-08-31T10:51:28;17.60;99.90
11385;DHT22;5747;56.748;13.882;2023-08-31T10:54:10;17.50;99.90
11385;DHT22;5747;56.748;13.882;2023-08-31T10:56:54;17.50;99.90
11385;DHT22;5747;56.748;13.882;2023-08-31T10:59:23;17.60;99.90
11385;DHT22;5747;56.748;13.882;2023-08-31T11:01:55;17.80;99.90
11385;DHT22;5747;56.748;13.882;2023-08-31T11:04:25;17.30;99.90
11385;DHT22;5747;56.748;13.882;2023-08-31T11:07:14;16.70;99.90
11385;DHT22;5747;56.748;13.882;2023-08-31T11:09:43;16.40;99.90
11385;DHT22;5747;56.748;13.882;2023-08-31T11:12:13;16.40;99.90
11385;DHT22;5747;56.748;13.882;2023-08-31T11:14:42;16.60;99.90
11385;DHT22;5747;56.748;13.882;2023-08-31T11:17:10;16.80;99.90
11385;DHT22;5747;56.748;13.882;2023-08-31T11:19:38;16.90;99.90
11385;DHT22;5747;56.748;13.882;2023-08-31T11:22:06;17.40;99.90
11385;DHT22;5747;56.748;13.882;2023-08-31T11:24:37;17.70;99.90
11385;DHT22;5747;56.748;13.882;2023-08-31T11:27:07;17.80;99.90
11385;DHT22;5747;56.748;13.882;2023-08-31T11:29:42;17.90;99.90
11385;DHT22;5747;56.748;13.882;2023-08-31T11:32:11;17.70;99.90
11385;DHT22;5747;56.748;13.882;2023-08-31T11:34:40;17.00;99.90
11385;DHT22;5747;56.748;13.882;2023-08-31T11:37:10;17.30;99.90
11385;DHT22;5747;56.748;13.882;2023-08-31T11:39:38;17.30;99.90
11385;DHT22;5747;56.748;13.882;2023-08-31T11:42:07;17.60;99.90
11385;DHT22;5747;56.748;13.882;2023-08-31T11:44:36;17.70;99.90
11385;DHT22;5747;56.748;13.882;2023-08-31T11:47:05;17.50;99.90
11385;DHT22;5747;56.748;13.882;2023-08-31T11:49:34;17.70;99.90
11385;DHT22;5747;56.748;13.882;2023-08-31T11:52:02;18.00;99.90
11385;DHT22;5747;56.748;13.882;2023-08-31T11:54:31;18.10;99.90
11385;DHT22;5747;56.748;13.882;2023-08-31T11:56:59;17.90;99.90
11385;DHT22;5747;56.748;13.882;2023-08-31T11:59:27;17.60;99.90
11385;DHT22;5747;56.748;13.882;2023-08-31T12:01:56;17.00;99.90
11385;DHT22;5747;56.748;13.882;2023-08-31T12:04:26;16.80;99.90
11385;DHT22;5747;56.748;13.882;2023-08-31T12:07:01;16.90;99.90
11385;DHT22;5747;56.748;13.882;2023-08-31T12:09:31;17.20;99.90
11385;DHT22;5747;56.748;13.882;2023-08-31T12:11:59;17.50;99.90
11385;DHT22;5747;56.748;13.882;2023-08-31T12:14:30;17.70;99.90
11385;DHT22;5747;56.748;13.882;2023-08-31T12:17:02;17.90;99.90
11385;DHT22;5747;56.748;13.882;2023-08-31T12:19:33;17.90;99.90
11385;DHT22;5747;56.748;13.882;2023-08-31T12:22:01;18.00;99.90
11385;DHT22;5747;56.748;13.882;2023-08-31T12:24:29;18.00;99.90
11385;DHT22;5747;56.748;13.882;2023-08-31T12:26:57;17.90;99.90
11385;DHT22;5747;56.748;13.882;2023-08-31T12:29:25;17.80;99.90
11385;DHT22;5747;56.748;13.882;2023-08-31T12:31:53;17.70;99.90
11385;DHT22;5747;56.748;13.882;2023-08-31T12:34:22;17.60;99.90
11385;DHT22;5747;56.748;13.882;2023-08-31T12:36:51;17.60;99.90
11385;DHT22;5747;56.748;13.882;2023-08-31T12:39:19;17.50;99.90
11385;DHT22;5747;56.748;13.882;2023-08-31T12:41:47;17.40;99.90
11385;DHT22;5747;56.748;13.882;2023-08-31T12:44:16;17.40;99.90
11385;DHT22;5747;56.748;13.882;2023-08-31T12:46:44;17.00;99.90
11385;DHT22;5747;56.748;13.882;2023-08-31T12:49:12;17.00;99.90
11385;DHT22;5747;56.748;13.882;2023-08-31T12:51:40;17.30;99.90
11385;DHT22;5747;56.748;13.882;2023-08-31T12:54:10;17.60;99.90
11385;DHT22;5747;56.748;13.882;2023-08-31T12:56:40;17.70;99.90
11385;DHT22;5747;56.748;13.882;2023-08-31T12:59:08;17.80;99.90
11385;DHT22;5747;56.748;13.882;2023-08-31T13:01:36;18.00;99.90
11385;DHT22;5747;56.748;13.882;2023-08-31T13:04:04;18.10;99.90
11385;DHT22;5747;56.748;13.882;2023-08-31T13:06:33;18.20;99.90
11385;DHT22;5747;56.748;13.882;2023-08-31T13:09:01;18.20;99.90
11385;DHT22;5747;56.748;13.882;2023-08-31T13:11:33;18.10;99.90
11385;DHT22;5747;56.748;13.882;2023-08-31T13:14:01;18.00;99.90
11385;DHT22;5747;56.748;13.882;2023-08-31T13:16:29;17.60;99.90
11385;DHT22;5747;56.748;13.882;2023-08-31T13:18:59;16.90;99.90
11385;DHT22;5747;56.748;13.882;2023-08-31T13:21:27;16.40;99.90
11385;DHT22;5747;56.748;13.882;2023-08-31T13:23:55;16.70;99.90
11385;DHT22;5747;56.748;13.882;2023-08-31T13:26:23;17.10;99.90
11385;DHT22;5747;56.748;13.882;2023-08-31T13:28:53;17.40;99.90
11385;DHT22;5747;56.748;13.882;2023-08-31T13:31:21;17.60;99.90
11385;DHT22;5747;56.748;13.882;2023-08-31T13:33:49;17.60;99.90
11385;DHT22;5747;56.748;13.882;2023-08-31T13:36:17;17.60;99.90
11385;DHT22;5747;56.748;13.882;2023-08-31T13:38:45;17.50;99.90
11385;DHT22;5747;56.748;13.882;2023-08-31T13:41:13;17.50;99.90
11385;DHT22;5747;56.748;13.882;2023-08-31T13:43:41;17.50;99.90
11385;DHT22;5747;56.748;13.882;2023-08-31T13:46:11;17.40;99.90
11385;DHT22;5747;56.748;13.882;2023-08-31T13:48:39;17.30;99.90
11385;DHT22;5747;56.748;13.882;2023-08-31T13:51:07;17.20;99.90
11385;DHT22;5747;56.748;13.882;2023-08-31T13:53:35;17.00;99.90
11385;DHT22;5747;56.748;13.882;2023-08-31T13:56:04;16.90;99.90
11385;DHT22;5747;56.748;13.882;2023-08-31T13:58:32;16.80;99.90
11385;DHT22;5747;56.748;13.882;2023-08-31T14:01:00;16.80;99.90
11385;DHT22;5747;56.748;13.882;2023-08-31T14:03:31;16.70;99.90
11385;DHT22;5747;56.748;13.882;2023-08-31T14:05:59;16.70;99.90
11385;DHT22;5747;56.748;13.882;2023-08-31T14:08:29;16.60;99.90
11385;DHT22;5747;56.748;13.882;2023-08-31T14:10:58;16.50;99.90
11385;DHT22;5747;56.748;13.882;2023-08-31T14:13:28;16.50;99.90
11385;DHT22;5747;56.748;13.882;2023-08-31T14:15:56;16.50;99.90
11385;DHT22;5747;56.748;13.882;2023-08-31T14:18:26;16.50;99.90
11385;DHT22;5747;56.748;13.882;2023-08-31T14:20:57;16.40;99.90
11385;DHT22;5747;56.748;13.882;2023-08-31T14:23:27;16.40;99.90
11385;DHT22;5747;56.748;13.882;2023-08-31T14:26:00;16.40;99.90
11385;DHT22;5747;56.748;13.882;2023-08-31T14:28:30;16.50;99.90
11385;DHT22;5747;56.748;13.882;2023-08-31T14:31:04;16.50;99.90
11385;DHT22;5747;56.748;13.882;2023-08-31T14:33:32;16.40;99.90
11385;DHT22;5747;56.748;13.882;2023-08-31T14:36:01;16.30;99.90
11385;DHT22;5747;56.748;13.882;2023-08-31T14:38:29;16.20;99.90
11385;DHT22;5747;56.748;13.882;2023-08-31T14:40:58;16.10;99.90
11385;DHT22;5747;56.748;13.882;2023-08-31T14:43:26;16.00;99.90
11385;DHT22;5747;56.748;13.882;2023-08-31T14:45:54;15.80;99.90
11385;DHT22;5747;56.748;13.882;2023-08-31T14:48:22;15.70;99.90
11385;DHT22;5747;56.748;13.882;2023-08-31T14:50:50;15.70;99.90
11385;DHT22;5747;56.748;13.882;2023-08-31T14:53:19;15.70;99.90
11385;DHT22;5747;56.748;13.882;2023-08-31T14:55:50;15.50;99.90
11385;DHT22;5747;56.748;13.882;2023-08-31T14:58:18;15.40;99.90
11385;DHT22;5747;56.748;13.882;2023-08-31T15:00:46;15.30;99.90
11385;DHT22;5747;56.748;13.882;2023-08-31T15:03:15;15.20;99.90
11385;DHT22;5747;56.748;13.882;2023-08-31T15:05:43;15.10;99.90
11385;DHT22;5747;56.748;13.882;2023-08-31T15:08:11;15.10;99.90
11385;DHT22;5747;56.748;13.882;2023-08-31T15:10:41;15.10;99.90
11385;DHT22;5747;56.748;13.882;2023-08-31T15:13:09;15.00;99.90
11385;DHT22;5747;56.748;13.882;2023-08-31T15:15:37;15.00;99.90
11385;DHT22;5747;56.748;13.882;2023-08-31T15:18:06;15.00;99.90
11385;DHT22;5747;56.748;13.882;2023-08-31T15:20:34;15.00;99.90
11385;DHT22;5747;56.748;13.882;2023-08-31T15:23:04;15.00;99.90
11385;DHT22;5747;56.748;13.882;2023-08-31T15:25:32;15.00;99.90
11385;DHT22;5747;56.748;13.882;2023-08-31T15:28:02;15.00;99.90
11385;DHT22;5747;56.748;13.882;2023-08-31T15:30:33;15.00;99.90
11385;DHT22;5747;56.748;13.882;2023-08-31T15:33:02;15.00;99.90
11385;DHT22;5747;56.748;13.882;2023-08-31T15:35:31;15.00;99.90
11385;DHT22;5747;56.748;13.882;2023-08-31T15:37:59;14.80;99.90
11385;DHT22;5747;56.748;13.882;2023-08-31T15:40:27;14.90;99.90
11385;DHT22;5747;56.748;13.882;2023-08-31T15:42:55;14.80;99.90
11385;DHT22;5747;56.748;13.882;2023-08-31T15:45:25;14.70;99.90
11385;DHT22;5747;56.748;13.882;2023-08-31T15:47:56;14.70;99.90
11385;DHT22;5747;56.748;13.882;2023-08-31T15:50:25;14.70;99.90